Time;durP1;ratioP1;P1;durP2;ratioP2;P2;SDS_P1;SDS_P2;PMS_P1;PMS_P2;Temp;Humidity;BMP_temperature;BMP_pressure;BME280_temperature;BME280_humidity;BME280_pressure;Samples;Min_cycle;Max_cycle;Signal;HPM_P1;HPM_P2
2021/03/29 00:00:40;;;;;;;6.17;1.47;;;;;;;10.35;65.29;99448.50;5007908;28;20217;-72
2021/03/29 00:03:07;;;;;;;4.30;1.53;;;;;;;10.35;65.69;99451.16;5012274;28;20349;-72
2021/03/29 00:05:35;;;;;;;4.60;1.50;;;;;;;10.27;66.41;99453.84;5008500;28;20203;-72
2021/03/29 00:08:06;;;;;;;3.60;1.20;;;;;;;10.29;66.60;99457.16;5012405;28;20199;-72
2021/03/29 00:10:33;;;;;;;3.20;1.30;;;;;;;10.28;67.31;99455.50;5020358;28;20203;-70
2021/03/29 00:13:02;;;;;;;4.00;1.57;;;;;;;10.33;68.52;99449.66;5013517;28;20226;-70
2021/03/29 00:15:31;;;;;;;5.00;1.40;;;;;;;10.36;68.22;99444.81;5010914;28;20207;-70
2021/03/29 00:17:58;;;;;;;4.07;1.33;;;;;;;10.34;69.68;99452.16;5015624;28;20206;-70
2021/03/29 00:20:27;;;;;;;4.17;1.40;;;;;;;10.29;70.84;99450.97;5019864;28;20671;-70
2021/03/29 00:22:55;;;;;;;3.23;1.23;;;;;;;10.31;70.90;99452.47;5017080;28;20231;-72
2021/03/29 00:25:22;;;;;;;1.83;1.10;;;;;;;10.20;71.97;99455.47;5015690;28;20277;-72
2021/03/29 00:27:49;;;;;;;5.00;1.37;;;;;;;10.29;71.45;99454.50;5015525;28;20533;-70
2021/03/29 00:30:20;;;;;;;5.73;1.50;;;;;;;10.20;71.66;99455.47;5018394;28;20222;-71
2021/03/29 00:32:48;;;;;;;3.77;1.23;;;;;;;10.31;71.89;99460.50;5033085;28;20219;-71
2021/03/29 00:35:16;;;;;;;3.27;1.80;;;;;;;10.25;71.23;99463.81;5027498;28;20218;-71
2021/03/29 00:37:45;;;;;;;3.70;1.60;;;;;;;10.24;71.65;99467.50;5020552;28;20207;-71
2021/03/29 00:40:13;;;;;;;5.87;1.70;;;;;;;10.07;72.99;99461.44;5017471;28;20226;-71
2021/03/29 00:42:41;;;;;;;5.03;1.40;;;;;;;9.92;75.66;99464.69;5018329;28;20232;-71
2021/03/29 00:45:09;;;;;;;7.77;1.70;;;;;;;9.91;76.79;99457.72;5014064;28;20214;-71
2021/03/29 00:47:37;;;;;;;5.00;1.60;;;;;;;9.87;76.21;99459.03;5014085;28;20210;-71
2021/03/29 00:50:10;;;;;;;2.60;1.63;;;;;;;9.91;75.45;99465.72;5014570;28;20195;-70
2021/03/29 00:52:37;;;;;;;3.47;1.40;;;;;;;9.86;75.34;99465.34;5015060;28;20223;-71
2021/03/29 00:55:06;;;;;;;5.57;1.40;;;;;;;9.95;73.95;99467.03;5018084;28;20202;-70
2021/03/29 00:57:33;;;;;;;3.30;1.93;;;;;;;10.08;73.06;99471.94;5015626;28;20203;-71
2021/03/29 01:00:00;;;;;;;3.10;1.27;;;;;;;10.04;72.89;99459.94;5012922;28;20215;-71
2021/03/29 01:02:27;;;;;;;3.33;1.10;;;;;;;9.99;73.40;99467.56;5008661;28;20231;-72
2021/03/29 01:04:55;;;;;;;2.80;1.37;;;;;;;9.97;72.82;99464.22;5018816;28;20203;-72
2021/03/29 01:07:24;;;;;;;2.80;1.40;;;;;;;9.86;74.30;99465.34;5013621;28;20204;-70
2021/03/29 01:09:51;;;;;;;5.53;1.37;;;;;;;9.78;74.40;99457.31;5014337;28;20329;-70
2021/03/29 01:12:19;;;;;;;3.20;1.30;;;;;;;9.73;75.95;99462.28;5012004;28;20727;-70
2021/03/29 01:14:47;;;;;;;3.37;1.53;;;;;;;9.62;78.91;99456.41;5022945;28;20238;-70
2021/03/29 01:17:19;;;;;;;2.73;1.10;;;;;;;9.64;77.02;99463.25;5018161;28;20210;-70
2021/03/29 01:19:59;;;;;;;3.17;1.00;;;;;;;9.69;76.35;99466.25;5018034;28;20211;-70
2021/03/29 01:22:28;;;;;;;2.87;1.50;;;;;;;9.58;77.72;99460.38;5016646;28;20242;-71
2021/03/29 01:25:05;;;;;;;2.17;1.30;;;;;;;9.56;76.81;99463.22;5021456;28;20202;-71
2021/03/29 01:27:35;;;;;;;5.43;1.60;;;;;;;9.52;77.25;99463.69;5012029;28;20216;-71
2021/03/29 01:30:03;;;;;;;2.67;1.40;;;;;;;9.51;76.40;99468.19;5016159;28;20721;-71
2021/03/29 01:32:31;;;;;;;3.77;1.40;;;;;;;9.44;76.84;99471.66;5013633;28;20269;-71
2021/03/29 01:34:58;;;;;;;2.07;1.20;;;;;;;9.62;75.03;99467.06;5013579;28;20570;-70
2021/03/29 01:37:26;;;;;;;4.73;1.23;;;;;;;9.55;74.97;99472.19;5010341;28;20576;-70
2021/03/29 01:39:53;;;;;;;5.03;1.23;;;;;;;9.35;78.46;99470.78;5014473;28;20222;-70
2021/03/29 01:42:20;;;;;;;4.20;1.47;;;;;;;9.49;74.87;99474.66;5013612;28;20231;-71
2021/03/29 01:44:48;;;;;;;4.00;1.27;;;;;;;9.37;76.56;99475.91;5012979;28;20203;-70
2021/03/29 01:47:17;;;;;;;3.50;1.40;;;;;;;9.26;77.81;99471.72;5015566;28;20203;-70
2021/03/29 01:49:44;;;;;;;2.00;1.10;;;;;;;9.40;77.63;99467.63;5020066;28;20213;-70
2021/03/29 01:52:10;;;;;;;4.50;1.30;;;;;;;9.27;79.66;99456.53;5013899;28;20219;-70
2021/03/29 01:54:37;;;;;;;2.67;1.00;;;;;;;9.25;78.79;99462.06;5015489;28;20206;-70
2021/03/29 01:57:06;;;;;;;3.27;1.20;;;;;;;9.24;79.17;99464.88;5014184;28;20672;-70
2021/03/29 01:59:33;;;;;;;1.67;1.20;;;;;;;9.22;78.28;99466.81;5015146;28;20199;-70
2021/03/29 02:02:01;;;;;;;4.77;1.50;;;;;;;9.27;78.50;99462.72;5013393;28;20237;-70
2021/03/29 02:04:28;;;;;;;1.87;1.03;;;;;;;9.25;78.20;99469.19;5021930;28;20207;-71
2021/03/29 02:06:56;;;;;;;2.27;1.00;;;;;;;9.25;79.72;99466.53;5014650;28;20203;-71
2021/03/29 02:09:23;;;;;;;3.57;1.57;;;;;;;9.07;80.02;99465.72;5013131;28;20207;-71
2021/03/29 02:11:50;;;;;;;2.53;1.50;;;;;;;9.19;79.95;99461.84;5014128;28;20219;-71
2021/03/29 02:14:18;;;;;;;5.00;1.70;;;;;;;9.08;79.90;99473.56;5013516;28;20307;-71
2021/03/29 02:16:45;;;;;;;1.60;0.90;;;;;;;9.01;80.54;99464.53;5014346;28;20583;-71
2021/03/29 02:19:13;;;;;;;2.93;1.30;;;;;;;9.15;79.60;99460.47;5016654;28;20223;-71
2021/03/29 02:21:42;;;;;;;1.80;1.07;;;;;;;9.06;79.58;99464.06;5019049;28;20298;-70
2021/03/29 02:24:11;;;;;;;4.97;1.40;;;;;;;8.98;80.45;99472.81;5013201;28;20248;-70
2021/03/29 02:26:40;;;;;;;4.27;1.40;;;;;;;9.07;79.28;99465.72;5017992;28;20206;-70
2021/03/29 02:29:07;;;;;;;2.00;1.13;;;;;;;8.98;80.95;99472.81;5016195;28;20286;-71
2021/03/29 02:31:34;;;;;;;3.57;1.23;;;;;;;9.06;80.45;99464.91;5005626;28;20701;-71
2021/03/29 02:34:03;;;;;;;3.27;1.20;;;;;;;8.90;81.95;99464.78;5010709;28;20742;-71
2021/03/29 02:36:31;;;;;;;4.63;1.73;;;;;;;8.77;83.27;99463.53;5014405;28;20293;-71
2021/03/29 02:38:58;;;;;;;7.03;1.50;;;;;;;8.86;82.61;99474.06;5015269;28;20299;-71
2021/03/29 02:41:27;;;;;;;3.23;1.10;;;;;;;8.72;82.96;99468.47;5012869;28;20203;-70
2021/03/29 02:43:55;;;;;;;2.70;1.30;;;;;;;8.86;82.31;99478.56;5020321;28;20233;-71
2021/03/29 02:46:24;;;;;;;3.53;1.30;;;;;;;8.85;81.75;99476.88;5017150;28;20207;-71
2021/03/29 02:48:52;;;;;;;1.53;1.03;;;;;;;8.76;83.71;99478.66;5012693;28;20334;-71
2021/03/29 02:51:20;;;;;;;3.23;1.40;;;;;;;8.73;83.88;99481.59;5016149;28;20207;-71
2021/03/29 02:53:49;;;;;;;6.07;1.50;;;;;;;8.60;85.14;99485.66;5013052;28;20223;-71
2021/03/29 02:56:19;;;;;;;3.10;1.60;;;;;;;8.71;84.33;99482.75;5014747;28;20222;-71
2021/03/29 02:58:50;;;;;;;5.47;1.30;;;;;;;8.47;85.98;99474.56;5016061;28;20293;-71
2021/03/29 03:01:17;;;;;;;3.57;1.70;;;;;;;8.51;86.48;99479.44;5011825;28;20229;-71
2021/03/29 03:03:45;;;;;;;2.53;1.27;;;;;;;8.57;85.70;99476.16;5013154;28;20317;-71
2021/03/29 03:06:13;;;;;;;5.57;1.10;;;;;;;8.51;86.65;99474.09;5011372;28;20207;-71
2021/03/29 03:08:40;;;;;;;2.23;1.27;;;;;;;8.39;88.48;99479.81;5012876;28;20211;-71
2021/03/29 03:11:11;;;;;;;1.63;1.07;;;;;;;8.39;88.69;99483.31;5009941;28;20571;-71
2021/03/29 03:13:38;;;;;;;3.00;1.27;;;;;;;8.21;90.18;99485.09;5009770;28;20234;-71
2021/03/29 03:16:06;;;;;;;8.13;1.23;;;;;;;8.33;88.72;99485.72;5007662;28;20253;-72
2021/03/29 03:18:33;;;;;;;5.60;1.33;;;;;;;8.39;87.38;99493.94;5017251;28;20219;-72
2021/03/29 03:21:00;;;;;;;3.63;1.50;;;;;;;8.33;88.79;99491.06;5013465;28;20205;-72
2021/03/29 03:23:27;;;;;;;5.57;1.33;;;;;;;8.42;87.78;99493.63;5015937;28;20240;-72
2021/03/29 03:25:54;;;;;;;5.20;1.63;;;;;;;8.28;88.37;99496.81;5011529;28;20200;-72
2021/03/29 03:28:23;;;;;;;5.13;1.63;;;;;;;8.29;87.63;99506.47;5010097;28;20311;-72
2021/03/29 03:30:52;;;;;;;4.03;1.20;;;;;;;8.23;88.64;99499.06;5015609;28;20659;-72
2021/03/29 03:33:21;;;;;;;3.77;1.77;;;;;;;8.08;90.83;99500.53;5031923;28;20222;-72
2021/03/29 03:35:48;;;;;;;6.13;1.93;;;;;;;8.19;89.89;99502.16;5016095;28;20209;-72
2021/03/29 03:38:17;;;;;;;2.83;1.40;;;;;;;8.21;88.24;99503.72;5021554;28;20203;-72
2021/03/29 03:40:46;;;;;;;2.50;1.40;;;;;;;7.99;90.69;99498.78;5017875;28;20210;-72
2021/03/29 03:43:16;;;;;;;4.87;1.90;;;;;;;8.05;90.27;99503.50;5009227;28;20245;-72
2021/03/29 03:45:47;;;;;;;4.93;1.63;;;;;;;8.12;89.92;99501.91;5008064;28;20206;-72
2021/03/29 03:48:14;;;;;;;3.27;1.50;;;;;;;8.02;91.10;99501.13;5012649;28;20231;-72
2021/03/29 03:50:41;;;;;;;4.07;1.60;;;;;;;7.88;92.43;99508.78;5014343;28;20205;-72
2021/03/29 03:53:09;;;;;;;6.33;1.70;;;;;;;7.83;93.56;99513.69;5007410;28;20255;-72
2021/03/29 03:55:36;;;;;;;4.10;1.37;;;;;;;7.96;91.89;99509.72;5000337;28;20215;-72
2021/03/29 03:58:03;;;;;;;4.23;1.20;;;;;;;7.94;92.26;99503.72;5014120;28;20223;-71
2021/03/29 04:00:30;;;;;;;7.77;1.60;;;;;;;7.79;94.65;99509.66;5011895;28;20205;-72
2021/03/29 04:02:58;;;;;;;3.53;1.23;;;;;;;7.77;94.27;99515.09;5011239;28;20258;-72
2021/03/29 04:05:25;;;;;;;6.27;1.97;;;;;;;7.83;94.22;99511.88;5011413;28;20202;-72
2021/03/29 04:07:52;;;;;;;5.37;1.60;;;;;;;7.83;93.35;99511.03;5009210;28;20578;-72
2021/03/29 04:10:21;;;;;;;3.10;1.37;;;;;;;7.80;93.21;99522.81;5010480;28;20214;-72
2021/03/29 04:12:52;;;;;;;7.27;1.70;;;;;;;7.77;93.13;99519.59;5010650;28;20342;-71
2021/03/29 04:15:20;;;;;;;14.07;1.27;;;;;;;7.74;93.42;99520.75;5015249;28;20686;-72
2021/03/29 04:17:47;;;;;;;3.77;1.30;;;;;;;7.77;92.89;99522.25;5013236;28;20203;-72
2021/03/29 04:20:16;;;;;;;3.00;1.30;;;;;;;8.02;90.66;99522.41;5015784;28;20213;-72
2021/03/29 04:22:43;;;;;;;6.00;1.53;;;;;;;8.04;90.01;99527.56;5010475;28;20228;-72
2021/03/29 04:25:12;;;;;;;3.30;1.60;;;;;;;8.17;88.64;99520.09;5011003;28;20658;-71
2021/03/29 04:27:39;;;;;;;2.67;1.20;;;;;;;8.29;87.48;99522.44;5011531;28;20209;-71
2021/03/29 04:30:08;;;;;;;3.30;1.50;;;;;;;8.37;86.92;99532.34;5012222;28;20241;-71
2021/03/29 04:32:35;;;;;;;4.63;1.70;;;;;;;8.38;86.81;99534.00;5018226;28;20229;-72
2021/03/29 04:35:03;;;;;;;2.03;1.37;;;;;;;8.43;86.22;99539.72;5011413;28;20221;-72
2021/03/29 04:37:30;;;;;;;2.10;1.47;;;;;;;8.47;87.32;99533.91;5008934;28;20213;-72
2021/03/29 04:39:57;;;;;;;3.63;1.43;;;;;;;8.57;85.55;99536.53;5010912;28;20255;-72
2021/03/29 04:42:24;;;;;;;4.50;1.97;;;;;;;8.65;85.46;99539.25;5013179;28;20221;-72
2021/03/29 04:44:51;;;;;;;6.40;1.63;;;;;;;8.67;84.17;99539.97;5009127;28;20215;-71
2021/03/29 04:47:17;;;;;;;4.47;1.50;;;;;;;8.70;84.87;99535.16;5019491;28;20206;-72
2021/03/29 04:49:44;;;;;;;4.20;1.40;;;;;;;8.76;83.78;99539.88;5015457;28;20209;-72
2021/03/29 04:52:11;;;;;;;3.57;1.50;;;;;;;8.87;81.27;99541.44;5010758;28;20251;-72
2021/03/29 04:54:39;;;;;;;3.33;1.47;;;;;;;8.84;81.68;99539.94;5014221;28;20701;-72
2021/03/29 04:57:07;;;;;;;7.17;1.83;;;;;;;8.92;81.34;99545.34;5019348;28;20404;-72
2021/03/29 04:59:33;;;;;;;4.10;1.70;;;;;;;9.07;80.29;99538.47;5012110;28;20213;-72
2021/03/29 05:02:00;;;;;;;8.03;2.00;;;;;;;9.06;80.04;99547.47;5011193;28;20216;-72
2021/03/29 05:04:27;;;;;;;2.93;1.70;;;;;;;9.07;80.03;99546.47;5013545;28;20227;-72
2021/03/29 05:06:54;;;;;;;6.07;2.00;;;;;;;9.10;80.40;99542.66;5015551;28;20206;-72
2021/03/29 05:09:21;;;;;;;5.20;1.60;;;;;;;9.15;80.10;99538.56;5012640;28;20569;-72
2021/03/29 05:11:50;;;;;;;5.13;1.43;;;;;;;9.24;79.97;99545.59;5017132;28;20213;-72
2021/03/29 05:14:19;;;;;;;6.43;1.77;;;;;;;9.16;79.69;99537.56;5015971;28;20205;-72
2021/03/29 05:16:46;;;;;;;6.50;1.70;;;;;;;9.27;79.91;99552.44;5009345;28;20208;-72
2021/03/29 05:19:13;;;;;;;10.60;2.50;;;;;;;9.31;79.55;99551.16;5022583;28;20226;-72
2021/03/29 05:21:40;;;;;;;9.90;2.03;;;;;;;9.38;79.86;99552.22;5015319;28;20196;-72
2021/03/29 05:24:08;;;;;;;4.17;1.50;;;;;;;9.29;81.13;99545.16;5018300;28;20237;-71
2021/03/29 05:26:35;;;;;;;5.87;1.83;;;;;;;9.37;80.34;99559.34;5023979;28;20206;-72
2021/03/29 05:29:03;;;;;;;6.73;1.80;;;;;;;9.44;80.41;99559.59;5015465;28;20606;-72
2021/03/29 05:31:35;;;;;;;4.43;1.83;;;;;;;9.54;78.68;99563.78;5014399;28;20258;-72
2021/03/29 05:34:02;;;;;;;5.27;2.23;;;;;;;9.65;78.38;99565.38;5008596;28;20716;-72
2021/03/29 05:36:29;;;;;;;4.87;1.60;;;;;;;9.70;77.28;99571.06;5012522;28;20667;-72
2021/03/29 05:38:56;;;;;;;6.23;1.67;;;;;;;9.77;76.51;99567.63;5016817;28;20289;-73
2021/03/29 05:41:22;;;;;;;5.53;1.70;;;;;;;9.83;76.72;99568.81;5009342;28;20211;-73
2021/03/29 05:43:49;;;;;;;6.50;1.77;;;;;;;9.79;76.98;99572.81;5017655;28;20237;-72
2021/03/29 05:46:17;;;;;;;5.17;1.90;;;;;;;9.93;75.51;99575.72;5017074;28;20207;-72
2021/03/29 05:48:44;;;;;;;8.63;1.93;;;;;;;9.90;76.12;99567.19;5018853;28;20276;-83
2021/03/29 05:51:11;;;;;;;5.20;1.90;;;;;;;9.94;76.81;99569.38;5015024;28;20298;-71
2021/03/29 05:53:38;;;;;;;6.13;1.53;;;;;;;10.02;76.68;99569.44;5007860;28;20587;-73
2021/03/29 05:56:07;;;;;;;4.03;2.17;;;;;;;10.13;76.65;99568.31;5015417;28;20399;-73
2021/03/29 05:58:41;;;;;;;6.50;2.20;;;;;;;10.18;76.06;99568.69;5010401;28;20206;-76
2021/03/29 06:01:08;;;;;;;8.27;2.33;;;;;;;10.28;74.81;99564.91;5015811;28;20220;-76
2021/03/29 06:03:37;;;;;;;4.63;2.17;;;;;;;10.29;75.18;99569.22;5012805;28;21581;-73
2021/03/29 06:06:18;;;;;;;9.40;2.80;;;;;;;10.45;74.09;99558.59;5010551;28;20230;-73
2021/03/29 06:08:47;;;;;;;6.43;2.17;;;;;;;10.56;72.62;99578.84;5012007;28;20207;-74
2021/03/29 06:11:27;;;;;;;6.33;2.20;;;;;;;10.66;72.41;99582.19;5011454;28;20222;-72
2021/03/29 06:14:14;;;;;;;5.30;2.23;;;;;;;10.76;72.59;99580.22;5009685;28;20273;-73
2021/03/29 06:16:58;;;;;;;7.10;2.63;;;;;;;10.84;72.82;99570.38;5012840;28;20208;-81
2021/03/29 06:19:47;;;;;;;7.63;2.10;;;;;;;11.04;72.76;99586.94;5017617;28;20213;-73
2021/03/29 06:22:17;;;;;;;7.17;2.43;;;;;;;11.28;71.48;99586.94;5012899;28;20730;-73
2021/03/29 06:25:08;;;;;;;6.87;2.20;;;;;;;11.45;69.39;99600.16;5013455;28;20253;-73
2021/03/29 06:27:46;;;;;;;3.33;1.80;;;;;;;11.70;68.38;99601.00;5015701;28;20364;-73
2021/03/29 06:30:25;;;;;;;6.03;1.90;;;;;;;11.97;64.40;99607.81;5010397;28;20239;-72
2021/03/29 06:33:06;;;;;;;4.17;2.20;;;;;;;12.32;62.90;99610.88;5020851;28;20230;-73
2021/03/29 06:35:36;;;;;;;10.33;3.47;;;;;;;12.48;62.13;99620.69;5015934;28;20203;-73
2021/03/29 06:38:14;;;;;;;6.07;2.77;;;;;;;12.52;61.90;99628.19;5019405;28;20228;-74
2021/03/29 06:40:44;;;;;;;5.70;2.50;;;;;;;12.01;64.89;99617.16;5014470;28;20661;-74
2021/03/29 06:43:28;;;;;;;5.27;2.70;;;;;;;11.96;63.22;99625.69;5015822;28;20224;-74
2021/03/29 06:45:58;;;;;;;6.57;2.00;;;;;;;11.81;61.71;99637.25;5014761;28;20310;-73
2021/03/29 06:48:27;;;;;;;4.20;2.30;;;;;;;11.70;61.94;99637.63;5016610;28;20299;-73
2021/03/29 06:51:12;;;;;;;6.30;2.10;;;;;;;12.31;59.64;99644.00;5014661;28;20573;-73
2021/03/29 06:53:41;;;;;;;3.57;2.17;;;;;;;12.80;57.56;99650.84;5008652;28;20308;-73
2021/03/29 06:56:25;;;;;;;9.03;2.63;;;;;;;12.16;57.50;99647.56;5012253;28;20206;-73
2021/03/29 06:58:53;;;;;;;6.13;1.93;;;;;;;12.47;57.29;99646.63;5011650;28;20202;-74
2021/03/29 07:01:22;;;;;;;7.50;2.10;;;;;;;12.13;55.14;99657.59;5011498;28;20253;-74
2021/03/29 07:03:51;;;;;;;4.43;2.23;;;;;;;12.68;54.83;99654.94;5012358;28;20693;-74
2021/03/29 07:06:21;;;;;;;5.87;2.40;;;;;;;12.88;52.11;99666.88;5012431;28;20288;-73
2021/03/29 07:08:48;;;;;;;7.03;2.50;;;;;;;12.84;52.41;99665.56;5003428;28;20203;-73
2021/03/29 07:11:17;;;;;;;6.17;2.37;;;;;;;13.21;51.43;99655.00;5008117;28;20207;-74
2021/03/29 07:13:45;;;;;;;5.30;2.53;;;;;;;13.10;48.33;99671.47;5012155;28;20228;-74
2021/03/29 07:16:12;;;;;;;6.80;2.47;;;;;;;13.16;49.39;99668.09;5012105;28;20201;-72
2021/03/29 07:18:41;;;;;;;7.60;2.10;;;;;;;13.35;47.56;99674.84;5008296;28;20346;-74
2021/03/29 07:21:10;;;;;;;5.17;2.13;;;;;;;13.37;47.96;99672.81;5004316;28;20217;-73
2021/03/29 07:23:38;;;;;;;8.43;3.10;;;;;;;14.04;46.82;99669.25;5011345;28;21761;-73
2021/03/29 07:26:24;;;;;;;7.67;2.97;;;;;;;13.74;47.32;99662.13;5011619;28;20227;-74
2021/03/29 07:28:51;;;;;;;6.60;2.40;;;;;;;14.43;45.99;99665.34;5012435;28;20203;-78
2021/03/29 07:31:40;;;;;;;6.90;2.30;;;;;;;13.95;46.90;99671.19;5002011;28;20204;-73
2021/03/29 07:34:07;;;;;;;7.60;2.33;;;;;;;13.56;48.18;99677.69;5009316;28;20670;-73
2021/03/29 07:36:48;;;;;;;9.40;3.20;;;;;;;14.14;47.87;99678.69;5011842;28;20207;-73
2021/03/29 07:39:38;;;;;;;7.23;2.10;;;;;;;13.67;49.06;99678.13;5010461;28;20231;-72
2021/03/29 07:42:34;;;;;;;8.83;3.23;;;;;;;13.65;48.78;99682.84;5011046;28;20305;-73
2021/03/29 07:45:03;;;;;;;11.87;2.80;;;;;;;14.07;46.92;99683.13;5007745;28;20255;-73
2021/03/29 07:47:53;;;;;;;5.03;2.57;;;;;;;14.33;47.85;99680.88;5011037;28;20221;-73
2021/03/29 07:50:58;;;;;;;9.90;2.53;;;;;;;14.91;45.57;99694.31;5015886;28;20676;-74
2021/03/29 07:53:46;;;;;;;9.37;3.10;;;;;;;15.13;43.85;99692.50;5011982;28;20225;-73
2021/03/29 07:56:38;;;;;;;13.23;3.27;;;;;;;14.58;44.74;99694.91;5001798;28;20213;-73
2021/03/29 07:59:06;;;;;;;8.77;2.93;;;;;;;14.63;45.34;99700.56;5004726;28;20230;-72
2021/03/29 08:02:05;;;;;;;6.23;2.70;;;;;;;15.20;43.78;99699.63;5006406;28;20230;-72
2021/03/29 08:05:15;;;;;;;6.80;2.73;;;;;;;15.93;41.09;99696.69;5010359;28;20236;-72
2021/03/29 08:07:44;;;;;;;9.67;2.50;;;;;;;15.86;41.54;99698.50;5005480;28;20666;-71
2021/03/29 08:10:12;;;;;;;5.83;1.90;;;;;;;16.09;40.69;99701.81;5011896;28;20652;-71
2021/03/29 08:12:58;;;;;;;11.10;3.20;;;;;;;16.14;40.02;99710.97;5004274;28;20254;-72
2021/03/29 08:15:39;;;;;;;4.90;2.27;;;;;;;16.03;40.26;99702.59;5007424;28;20896;-72
2021/03/29 08:18:06;;;;;;;8.40;2.70;;;;;;;15.83;41.42;99707.81;5011664;28;20207;-72
2021/03/29 08:20:46;;;;;;;4.33;2.37;;;;;;;16.24;40.59;99702.53;5014150;28;20218;-71
2021/03/29 08:23:33;;;;;;;7.87;2.10;;;;;;;16.70;39.40;99707.25;5003255;28;20226;-72
2021/03/29 08:26:15;;;;;;;4.17;2.60;;;;;;;16.89;39.42;99701.16;5010212;28;20203;-72
2021/03/29 08:29:10;;;;;;;6.43;2.30;;;;;;;16.80;39.31;99712.28;5010413;28;20287;-72
2021/03/29 08:32:09;;;;;;;6.73;2.37;;;;;;;16.28;40.26;99710.06;4979724;28;20207;-76
2021/03/29 08:34:41;;;;;;;6.77;2.90;;;;;;;16.63;40.13;99700.16;5007100;28;20586;-73
2021/03/29 08:37:09;;;;;;;7.70;2.30;;;;;;;16.81;39.46;99703.19;5011362;28;20695;-72
2021/03/29 08:39:38;;;;;;;10.87;2.80;;;;;;;17.15;38.14;99713.91;5014513;28;20199;-71
2021/03/29 08:42:06;;;;;;;7.80;2.77;;;;;;;16.72;38.67;99707.06;5002976;28;20204;-73
2021/03/29 08:44:36;;;;;;;9.90;2.70;;;;;;;16.39;39.79;99712.25;5008195;28;20280;-72
2021/03/29 08:47:08;;;;;;;8.20;4.17;;;;;;;17.24;38.28;99712.72;5007267;28;20653;-72
2021/03/29 08:49:35;;;;;;;6.43;2.40;;;;;;;17.59;38.21;99707.03;5004271;28;20918;-73
2021/03/29 08:52:02;;;;;;;4.63;2.23;;;;;;;16.83;38.14;99711.91;4998140;28;20204;-74
2021/03/29 08:54:29;;;;;;;6.57;2.17;;;;;;;17.49;37.39;99714.72;5008032;28;20668;-72
2021/03/29 08:57:03;;;;;;;6.77;2.50;;;;;;;17.29;36.87;99719.19;5010559;28;20917;-73
2021/03/29 08:59:31;;;;;;;5.00;2.00;;;;;;;16.94;36.82;99712.16;5008550;28;20207;-72
2021/03/29 09:01:59;;;;;;;5.77;1.93;;;;;;;17.71;35.71;99712.66;5013837;28;20206;-72
2021/03/29 09:04:26;;;;;;;3.43;1.50;;;;;;;16.85;35.62;99720.59;5010661;28;20223;-72
2021/03/29 09:06:54;;;;;;;6.93;1.67;;;;;;;17.48;35.40;99717.59;5012543;28;20542;-72
2021/03/29 09:09:22;;;;;;;4.80;1.60;;;;;;;17.81;34.72;99724.75;5013732;28;20208;-72
2021/03/29 09:11:51;;;;;;;1.43;1.10;;;;;;;18.50;32.53;99730.63;5011730;28;20219;-72
2021/03/29 09:14:19;;;;;;;3.63;1.10;;;;;;;18.62;31.66;99737.03;5011292;28;20218;-73
2021/03/29 09:16:47;;;;;;;5.27;1.10;;;;;;;18.93;31.67;99734.47;5014095;28;20201;-73
2021/03/29 09:19:17;;;;;;;2.40;1.00;;;;;;;19.20;31.31;99730.66;5014532;28;20221;-73
2021/03/29 09:21:45;;;;;;;4.60;1.53;;;;;;;18.52;31.54;99739.34;5015401;28;20352;-73
2021/03/29 09:24:16;;;;;;;13.73;1.40;;;;;;;18.99;30.67;99742.59;5014764;28;20263;-73
2021/03/29 09:26:43;;;;;;;4.67;1.27;;;;;;;18.76;30.32;99744.09;5009479;28;20265;-71
2021/03/29 09:29:31;;;;;;;2.80;0.93;;;;;;;18.60;29.90;99747.25;5023403;28;20280;-73
2021/03/29 09:32:09;;;;;;;3.07;1.10;;;;;;;18.00;30.63;99750.13;5024827;28;20242;-73
2021/03/29 09:34:37;;;;;;;4.77;1.10;;;;;;;17.91;30.91;99744.09;5022098;28;20269;-73
2021/03/29 09:37:05;;;;;;;3.43;1.20;;;;;;;18.77;29.78;99751.16;5020112;28;20231;-72
2021/03/29 09:39:33;;;;;;;3.10;1.23;;;;;;;18.59;30.49;99749.13;5017727;28;20662;-71
2021/03/29 09:42:01;;;;;;;4.63;1.13;;;;;;;18.41;29.83;99756.19;5014775;28;20206;-74
2021/03/29 09:44:30;;;;;;;1.50;1.00;;;;;;;19.21;28.70;99754.78;5014897;28;20749;-72
2021/03/29 09:46:58;;;;;;;7.30;1.17;;;;;;;19.83;28.14;99763.09;5012281;28;20308;-73
2021/03/29 09:49:26;;;;;;;3.17;1.20;;;;;;;19.85;27.82;99766.41;5013712;28;20221;-73
2021/03/29 09:52:03;;;;;;;3.90;1.10;;;;;;;18.69;28.20;99773.03;5011269;28;20208;-72
2021/03/29 09:54:32;;;;;;;1.87;0.87;;;;;;;19.28;28.50;99761.06;5007333;28;20208;-71
2021/03/29 09:57:11;;;;;;;2.83;1.10;;;;;;;19.29;27.06;99770.84;5011214;28;20562;-74
2021/03/29 09:59:40;;;;;;;2.50;0.90;;;;;;;19.32;27.31;99764.16;5012479;28;20590;-74
2021/03/29 10:02:15;;;;;;;4.97;0.87;;;;;;;19.57;26.48;99768.66;5010905;28;20228;-71
2021/03/29 10:04:42;;;;;;;2.07;1.10;;;;;;;20.21;27.39;99761.19;5013126;28;20215;-75
2021/03/29 10:07:15;;;;;;;2.87;1.23;;;;;;;20.45;26.63;99759.53;5013232;28;20203;-73
2021/03/29 10:09:45;;;;;;;2.17;0.93;;;;;;;20.59;26.83;99764.66;5003894;28;20199;-73
2021/03/29 10:12:21;;;;;;;3.33;1.20;;;;;;;20.77;25.40;99758.44;5012455;28;20242;-73
2021/03/29 10:14:48;;;;;;;6.50;1.10;;;;;;;20.63;25.24;99759.59;5012513;28;20219;-75
2021/03/29 10:17:16;;;;;;;2.77;1.27;;;;;;;20.57;25.22;99758.59;5012882;28;20302;-73
2021/03/29 10:19:43;;;;;;;4.47;1.50;;;;;;;19.63;26.89;99756.09;5013989;28;20289;-73
2021/03/29 10:22:14;;;;;;;3.93;1.43;;;;;;;20.74;26.03;99750.72;5012349;28;20215;-73
2021/03/29 10:25:00;;;;;;;3.57;0.90;;;17.60;1.00;;;21.00;25.15;99756.75;5010548;28;20231;-79
2021/03/29 10:27:44;;;;;;;5.80;1.10;;;17.70;1.00;;;20.44;26.78;99742.44;5008276;28;20207;-74
2021/03/29 10:30:23;;;;;;;3.13;1.27;;;17.60;1.00;;;18.71;27.54;99750.16;5013134;28;20204;-75
2021/03/29 10:32:51;;;;;;;2.63;0.93;;;17.00;1.00;;;18.46;27.46;99740.19;5011276;28;20281;-77
2021/03/29 10:35:19;;;;;;;3.97;1.10;;;16.60;1.00;;;19.16;26.18;99745.66;5013250;28;20228;-76
2021/03/29 10:37:48;;;;;;;1.67;0.87;;;16.70;1.00;;;20.33;25.57;99751.31;5012898;28;20681;-76
2021/03/29 10:40:15;;;;;;;1.70;1.03;;;17.10;1.00;;;20.58;24.91;99741.25;5006237;28;20254;-76
2021/03/29 10:42:42;;;;;;;3.23;1.23;;;17.50;1.00;;;20.12;25.97;99742.72;5008231;28;20281;-76
2021/03/29 10:45:11;;;;;;;3.87;1.07;;;17.60;1.00;;;20.89;24.97;99743.94;5019894;28;20215;-79
2021/03/29 10:47:38;;;;;;;12.53;2.00;;;17.70;1.00;;;20.59;27.34;99725.81;5013445;28;20282;-77
2021/03/29 10:50:07;;;;;;;4.43;1.60;;;18.00;1.00;;;20.58;27.40;99714.13;5012938;28;20207;-75
2021/03/29 10:52:34;;;;;;;1.50;1.00;;;18.00;1.00;;;20.45;27.15;99722.41;5012727;28;20230;-73
2021/03/29 10:55:01;;;;;;;3.13;1.70;;;18.00;1.00;;;19.94;28.22;99721.75;5007349;28;20195;-76
2021/03/29 10:57:27;;;;;;;2.57;1.33;;;17.80;1.00;;;19.65;27.92;99727.75;5006130;28;20210;-75
2021/03/29 10:59:54;;;;;;;5.60;1.50;;;17.60;1.00;;;20.38;28.03;99713.50;5013482;28;20268;-76
2021/03/29 11:02:21;;;;;;;2.97;1.67;;;17.60;1.00;;;20.40;28.03;99710.53;5012376;28;20778;-77
2021/03/29 11:04:47;;;;;;;4.23;1.50;;;17.70;1.00;;;20.91;26.99;99716.53;5014272;28;20227;-77
2021/03/29 11:07:14;;;;;;;3.37;1.60;;;17.90;1.00;;;21.12;27.42;99716.09;5015615;28;20207;-78
2021/03/29 11:09:41;;;;;;;2.53;1.33;;;17.90;1.00;;;20.94;27.52;99708.78;5015065;28;20207;-78
2021/03/29 11:12:10;;;;;;;2.90;1.53;;;18.10;1.00;;;20.65;26.56;99714.91;5009074;28;20221;-78
2021/03/29 11:14:36;;;;;;;4.47;1.67;;;18.20;1.00;;;20.86;26.65;99706.34;5016762;28;20209;-77
2021/03/29 11:17:04;;;;;;;3.73;1.50;;;18.30;1.00;;;20.91;26.80;99708.38;5016782;28;20687;-78
2021/03/29 11:19:30;;;;;;;3.80;1.37;;;18.40;1.00;;;21.22;25.45;99716.38;5016130;28;20710;-83
2021/03/29 11:21:57;;;;;;;4.80;1.40;;;18.40;1.00;;;20.78;26.02;99722.91;5003348;28;20610;-76
2021/03/29 11:24:23;;;;;;;4.27;1.50;;;18.40;1.00;;;21.22;25.76;99711.78;5012739;28;20214;-77
2021/03/29 11:26:50;;;;;;;4.53;1.53;;;18.30;1.00;;;20.41;26.89;99713.03;5012548;28;20215;-80
2021/03/29 11:29:18;;;;;;;3.00;1.57;;;18.20;1.00;;;20.67;26.83;99703.84;5013166;28;20238;-78
2021/03/29 11:31:45;;;;;;;7.40;2.07;;;18.30;1.00;;;21.26;26.92;99698.56;5013204;28;20593;-76
2021/03/29 11:34:13;;;;;;;5.50;1.33;;;18.40;1.00;;;21.04;25.50;99709.09;4994231;28;20227;-76
2021/03/29 11:36:41;;;;;;;5.63;1.30;;;18.40;1.00;;;20.94;24.42;99711.50;5011771;28;20199;-77
2021/03/29 11:39:10;;;;;;;5.03;1.57;;;18.50;1.00;;;20.41;25.04;99701.38;5011011;28;20219;-76
2021/03/29 11:41:37;;;;;;;5.67;1.80;;;18.30;1.00;;;20.96;25.01;99703.97;5011626;28;20656;-79
2021/03/29 11:44:04;;;;;;;4.53;1.30;;;18.30;1.00;;;21.60;23.74;99709.63;5007317;28;20231;-76